createdAt,value
2023-04-07T00:01:03.544Z,100669.53
2023-04-07T00:05:55.571Z,100552.22
2023-04-07T00:10:47.458Z,100554.56
2023-04-07T00:15:39.218Z,100816.94
2023-04-07T00:20:31.138Z,100595.75
2023-04-07T00:25:22.889Z,100821.53
2023-04-07T00:30:15.477Z,100715.91
2023-04-07T00:35:07.501Z,100442.03
2023-04-07T00:39:59.438Z,100621.78
2023-04-07T00:44:51.558Z,100804.19
2023-04-07T00:49:43.317Z,100792.88
2023-04-07T00:54:35.002Z,100515.66
2023-04-07T00:59:26.697Z,100708.75
2023-04-07T01:04:39.887Z,100800.06
2023-04-07T01:09:43.264Z,100717.53
2023-04-07T01:14:42.428Z,100583.56
2023-04-07T01:20:03.481Z,100716.19
2023-04-07T01:25:14.235Z,100800.19
2023-04-07T01:30:11.937Z,100770.50
2023-04-07T01:35:10.037Z,100615.34
2023-04-07T01:40:03.209Z,100718.28
2023-04-07T01:44:56.973Z,100469.13
2023-04-07T01:49:51.044Z,100580.44
2023-04-07T01:54:43.628Z,100600.47
2023-04-07T01:59:35.412Z,100342.78
2023-04-07T02:04:49.071Z,100638.69
2023-04-07T02:09:43.542Z,100748.88
2023-04-07T02:14:36.947Z,100660.00
2023-04-07T02:19:35.902Z,100596.72
2023-04-07T02:24:27.834Z,100659.63
2023-04-07T02:29:19.618Z,100658.00
2023-04-07T02:34:11.354Z,100791.75
2023-04-07T02:39:04.248Z,100274.34
2023-04-07T02:43:56.161Z,100807.88
2023-04-07T02:48:48.089Z,100703.13
2023-04-07T02:53:39.833Z,100779.47
2023-04-07T02:58:31.781Z,100702.75
2023-04-07T03:03:24.019Z,100805.09
2023-04-07T03:08:27.611Z,100672.69
2023-04-07T03:13:21.027Z,100814.97
2023-04-07T03:18:13.245Z,100422.50
2023-04-07T03:23:08.021Z,100765.53
2023-04-07T03:27:59.906Z,100607.72
2023-04-07T03:32:55.991Z,100774.19
2023-04-07T03:37:47.860Z,100809.09
2023-04-07T03:42:43.392Z,100719.06
2023-04-07T03:47:37.296Z,100527.06
2023-04-07T03:52:30.729Z,100598.84
2023-04-07T03:57:29.991Z,100480.06
2023-04-07T04:02:22.135Z,100334.91
2023-04-07T04:07:17.410Z,100555.63
2023-04-07T04:12:18.302Z,100453.13
2023-04-07T04:17:28.672Z,100612.19
2023-04-07T04:22:20.565Z,100751.69
2023-04-07T04:27:17.072Z,100385.16
2023-04-07T04:32:12.754Z,100684.00
2023-04-07T04:37:07.803Z,100517.19
2023-04-07T04:42:00.007Z,100602.69
2023-04-07T04:46:57.824Z,100524.25
2023-04-07T04:51:49.728Z,100632.63
2023-04-07T04:56:42.893Z,100597.28
2023-04-07T05:01:35.518Z,100858.13
2023-04-07T05:06:32.647Z,100528.22
2023-04-07T05:11:30.383Z,100699.66
2023-04-07T05:16:22.169Z,100782.25
2023-04-07T05:21:14.806Z,100838.41
2023-04-07T05:26:06.581Z,100767.72
2023-04-07T05:30:58.309Z,100805.72
2023-04-07T05:35:54.814Z,100856.03
2023-04-07T05:40:47.437Z,100817.06
2023-04-07T05:45:46.265Z,100890.97
2023-04-07T05:50:38.119Z,100648.03
2023-04-07T05:55:33.704Z,100563.53
2023-04-07T06:00:25.775Z,100536.53
2023-04-07T06:05:26.861Z,100901.22
2023-04-07T06:10:21.157Z,100866.41
2023-04-07T06:15:12.996Z,100734.78
2023-04-07T06:20:05.194Z,100617.69
2023-04-07T06:24:58.207Z,100802.22
2023-04-07T06:29:50.019Z,100729.72
2023-04-07T06:34:41.876Z,100815.84
2023-04-07T06:39:34.068Z,100717.56
2023-04-07T06:44:25.866Z,100917.50
2023-04-07T06:49:17.601Z,100795.31
2023-04-07T06:54:12.952Z,100664.97
2023-04-07T07:45:59.893Z,100940.22
2023-04-07T07:50:52.628Z,100816.66
2023-04-07T07:55:45.642Z,100727.44
2023-04-07T08:00:37.426Z,100901.44
2023-04-07T08:05:29.173Z,100786.22
2023-04-07T08:10:21.900Z,100771.22
2023-04-07T08:15:13.682Z,100653.53
2023-04-07T08:20:06.719Z,100776.28
2023-04-07T08:24:58.577Z,100864.69
2023-04-07T08:30:03.232Z,100749.50
2023-04-07T08:34:56.182Z,100847.38
2023-04-07T08:39:47.876Z,100749.53
2023-04-07T08:44:40.433Z,100774.94
2023-04-07T08:49:33.440Z,100985.00
2023-04-07T08:54:26.328Z,100757.44
2023-04-07T08:59:18.782Z,100841.84
2023-04-07T09:04:11.089Z,100616.78
2023-04-07T09:09:05.980Z,100825.47
2023-04-07T09:13:59.062Z,100886.38
2023-04-07T09:18:51.005Z,100895.59
2023-04-07T09:23:43.229Z,100806.91
2023-04-07T09:28:42.485Z,101053.22
2023-04-07T09:33:35.608Z,101060.91
2023-04-07T09:38:39.168Z,101068.09
2023-04-07T09:43:30.995Z,101067.78
2023-04-07T09:48:22.945Z,100763.88
2023-04-07T09:53:15.580Z,100926.66
2023-04-07T09:58:08.846Z,100901.22
2023-04-07T10:03:00.895Z,100869.13
2023-04-07T10:07:54.580Z,100780.63
2023-04-07T10:12:48.432Z,100763.06
2023-04-07T10:17:45.578Z,100588.16
2023-04-07T10:22:38.742Z,100917.56
2023-04-07T10:27:38.980Z,100947.59
2023-04-07T10:32:30.875Z,100678.84
2023-04-07T10:37:23.625Z,101057.97
2023-04-07T10:42:40.981Z,101098.97
2023-04-07T10:47:32.932Z,101043.78
2023-04-07T10:52:24.925Z,100899.63
2023-04-07T10:57:18.199Z,100781.22
2023-04-07T11:02:13.336Z,101108.63
2023-04-07T11:07:05.386Z,100853.81
2023-04-07T11:11:57.817Z,100786.88
2023-04-07T11:16:49.787Z,100903.50
2023-04-07T11:21:41.588Z,101058.81
2023-04-07T11:26:39.092Z,101114.97
2023-04-07T11:31:32.671Z,100824.38
2023-04-07T11:36:32.408Z,100785.22
2023-04-07T11:41:27.415Z,101131.75
2023-04-07T11:46:19.401Z,101063.72
2023-04-07T11:51:19.353Z,101024.34
2023-04-07T11:56:16.969Z,101137.28
2023-04-07T12:01:09.220Z,100831.50
2023-04-07T12:06:04.293Z,101003.53
2023-04-07T12:11:14.799Z,100932.78
2023-04-07T12:16:06.691Z,100876.75
2023-04-07T12:20:59.149Z,100934.97
2023-04-07T12:25:51.022Z,100762.06
2023-04-07T12:30:43.571Z,100739.50
2023-04-07T12:35:35.770Z,101038.16
2023-04-07T12:40:29.393Z,101001.16
2023-04-07T12:45:21.374Z,100917.38
2023-04-07T12:50:13.186Z,100853.88
2023-04-07T12:55:05.367Z,101177.84
2023-04-07T12:59:57.151Z,101182.59
2023-04-07T13:04:48.913Z,100951.31
2023-04-07T13:09:50.013Z,101049.50
2023-04-07T13:14:52.941Z,101173.97
2023-04-07T13:19:47.044Z,100886.19
2023-04-07T13:24:39.942Z,101000.06
2023-04-07T13:29:33.122Z,100900.22
2023-04-07T13:34:29.505Z,100903.75
2023-04-07T13:40:14.209Z,101175.16
2023-04-07T13:45:09.420Z,101062.91
2023-04-07T13:50:03.271Z,101055.22
2023-04-07T13:54:56.346Z,100878.38
2023-04-07T13:59:52.177Z,101128.38
2023-04-07T14:04:44.322Z,100946.31
2023-04-07T14:09:36.733Z,100924.94
2023-04-07T14:14:28.506Z,100907.66
2023-04-07T14:19:25.685Z,101056.81
2023-04-07T14:24:18.056Z,100949.03
2023-04-07T14:29:10.031Z,101134.91
2023-04-07T14:34:01.755Z,100788.97
2023-04-07T14:38:56.323Z,100872.91
2023-04-07T14:43:51.063Z,101188.72
2023-04-07T14:48:46.356Z,100970.94
2023-04-07T14:53:38.132Z,101051.06
2023-04-07T14:58:32.358Z,101186.53
2023-04-07T15:03:24.484Z,101038.28
2023-04-07T15:08:16.623Z,101193.47
2023-04-07T15:13:08.930Z,100951.13
2023-04-07T15:18:00.925Z,100872.78
2023-04-07T15:22:52.744Z,100903.28
2023-04-07T15:27:45.933Z,100971.47
2023-04-07T15:32:38.642Z,100917.53
2023-04-07T15:37:34.142Z,100969.25
2023-04-07T15:42:26.082Z,101153.97
2023-04-07T15:47:18.320Z,100753.81
2023-04-07T15:52:12.075Z,101028.63
2023-04-07T15:57:03.912Z,100910.75
2023-04-07T16:01:55.969Z,100828.00
2023-04-07T16:06:49.467Z,100829.59
2023-04-07T16:11:41.241Z,101213.13
2023-04-07T16:16:36.897Z,101029.81
2023-04-07T16:21:28.860Z,101062.53
2023-04-07T16:26:21.211Z,101108.81
2023-04-07T16:31:13.081Z,100905.69
2023-04-07T16:36:07.439Z,101258.22
2023-04-07T16:41:04.340Z,101026.00
2023-04-07T16:45:56.575Z,101126.81
2023-04-07T16:50:48.337Z,101063.34
2023-04-07T16:55:40.130Z,101104.53
2023-04-07T17:00:31.916Z,101062.75
2023-04-07T17:05:24.706Z,100982.19
2023-04-07T17:10:16.618Z,101285.16
2023-04-07T17:15:08.723Z,101175.69
2023-04-07T17:20:00.726Z,101027.22
2023-04-07T17:24:53.479Z,101011.47
2023-04-07T17:29:45.364Z,100874.91
2023-04-07T17:34:37.868Z,101212.72
2023-04-07T17:39:29.577Z,101136.88
2023-04-07T17:44:24.927Z,101032.78
2023-04-07T17:49:17.206Z,101201.81
2023-04-07T17:54:09.847Z,101195.94
2023-04-07T17:59:01.791Z,101216.34
2023-04-07T18:03:53.882Z,100966.28
2023-04-07T18:08:47.859Z,101210.81
2023-04-07T18:13:40.531Z,101094.50
2023-04-07T18:18:33.143Z,101202.16
2023-04-07T18:23:26.795Z,101372.44
2023-04-07T18:28:18.793Z,101031.19
2023-04-07T18:33:14.304Z,101311.31
2023-04-07T18:38:06.505Z,101103.88
2023-04-07T18:42:58.275Z,101009.03
2023-04-07T18:47:51.374Z,100879.63
2023-04-07T18:52:43.208Z,101260.84
2023-04-07T18:57:35.954Z,101371.25
2023-04-07T19:02:28.266Z,100937.00
2023-04-07T19:07:20.346Z,101285.22
2023-04-07T19:12:12.108Z,101226.78
2023-04-07T19:17:03.947Z,100983.16
2023-04-07T19:21:55.677Z,101135.78
2023-04-07T19:26:47.448Z,100949.91
2023-04-07T19:31:39.639Z,101324.09
2023-04-07T19:36:32.973Z,101109.72
2023-04-07T19:41:24.782Z,101300.56
2023-04-07T19:46:16.993Z,101178.81
2023-04-07T19:51:08.983Z,101267.28
2023-04-07T19:56:04.184Z,101293.63
2023-04-07T20:00:56.369Z,101380.97
2023-04-07T20:05:48.199Z,101332.34
2023-04-07T20:10:40.038Z,101183.06
2023-04-07T20:15:31.821Z,100853.34
2023-04-07T20:20:24.064Z,101338.47
2023-04-07T20:25:16.127Z,101067.34
2023-04-07T20:30:09.066Z,101361.03
2023-04-07T20:35:00.928Z,101499.16
2023-04-07T20:39:55.641Z,101495.09
2023-04-07T20:44:50.800Z,101298.00
2023-04-07T20:49:43.899Z,101348.28
2023-04-07T20:54:36.258Z,101301.97
2023-04-07T20:59:28.998Z,101228.47
2023-04-07T21:04:21.081Z,101422.31
2023-04-07T21:09:13.353Z,101385.56
2023-04-07T21:14:05.300Z,101265.78
2023-04-07T21:18:57.336Z,101330.84
2023-04-07T21:23:49.157Z,101238.34
